createdAt,value
2018-12-07T00:00:21.677Z,84.35
2018-12-07T00:02:50.002Z,84.00
2018-12-07T00:05:18.260Z,84.42
2018-12-07T00:07:46.532Z,84.39
2018-12-07T00:10:14.817Z,84.37
2018-12-07T00:12:43.035Z,84.37
2018-12-07T00:15:11.311Z,84.22
2018-12-07T00:17:39.637Z,84.39
2018-12-07T00:20:08.852Z,84.33
2018-12-07T00:22:37.107Z,84.32
2018-12-07T00:25:17.793Z,84.64
2018-12-07T00:27:46.169Z,84.32
2018-12-07T00:30:14.410Z,84.52
2018-12-07T00:32:42.842Z,84.18
2018-12-07T00:35:11.069Z,84.23
2018-12-07T00:37:39.325Z,84.78
2018-12-07T00:40:07.895Z,84.81
2018-12-07T00:42:36.147Z,85.03
2018-12-07T00:45:05.250Z,84.78
2018-12-07T00:47:33.497Z,84.93
2018-12-07T00:50:01.728Z,84.78
2018-12-07T00:52:30.003Z,84.60
2018-12-07T00:54:58.226Z,84.80
2018-12-07T00:57:26.484Z,84.42
2018-12-07T00:59:54.734Z,84.78
2018-12-07T01:02:22.930Z,84.89
2018-12-07T01:04:51.161Z,85.00
2018-12-07T01:07:19.462Z,84.71
2018-12-07T01:09:47.748Z,84.79
2018-12-07T01:12:16.149Z,84.77
2018-12-07T01:14:44.395Z,84.62
2018-12-07T01:17:12.637Z,84.97
2018-12-07T01:19:40.898Z,84.72
2018-12-07T01:22:09.154Z,84.48
2018-12-07T01:24:37.422Z,84.71
2018-12-07T01:27:05.710Z,84.69
2018-12-07T01:29:33.929Z,84.45
2018-12-07T01:32:02.387Z,85.09
2018-12-07T01:34:30.658Z,84.64
2018-12-07T01:36:58.994Z,84.91
2018-12-07T01:39:27.209Z,84.88
2018-12-07T01:41:55.527Z,84.77
2018-12-07T01:44:23.799Z,84.67
2018-12-07T01:46:52.059Z,84.80
2018-12-07T01:49:20.284Z,84.90
2018-12-07T01:51:48.558Z,84.93
2018-12-07T01:54:16.813Z,84.99
2018-12-07T01:56:45.025Z,84.56
2018-12-07T01:59:13.290Z,84.88
2018-12-07T02:01:42.316Z,84.89
2018-12-07T02:04:10.590Z,84.86
2018-12-07T02:06:38.934Z,85.25
2018-12-07T02:09:07.699Z,84.88
2018-12-07T02:11:36.227Z,84.73
2018-12-07T02:14:05.548Z,85.06
2018-12-07T02:16:34.025Z,84.75
2018-12-07T02:19:02.334Z,84.85
2018-12-07T02:21:30.567Z,84.77
2018-12-07T02:23:58.776Z,85.11
2018-12-07T02:26:27.095Z,84.76
2018-12-07T02:28:55.357Z,84.60
2018-12-07T02:31:23.663Z,84.85
2018-12-07T02:33:52.129Z,84.94
2018-12-07T02:36:20.352Z,84.76
2018-12-07T02:38:48.586Z,84.95
2018-12-07T02:41:16.810Z,84.78
2018-12-07T02:43:45.037Z,84.84
2018-12-07T02:46:13.255Z,84.54
2018-12-07T02:48:41.517Z,84.66
2018-12-07T02:51:09.753Z,84.68
2018-12-07T02:53:38.003Z,84.61
2018-12-07T02:56:06.297Z,84.62
2018-12-07T02:58:34.490Z,84.64
2018-12-07T03:01:02.791Z,84.51
2018-12-07T03:03:30.999Z,84.46
2018-12-07T03:05:59.239Z,84.92
2018-12-07T03:08:27.477Z,84.36
2018-12-07T03:10:55.755Z,84.72
2018-12-07T03:13:24.033Z,84.71
2018-12-07T03:15:52.380Z,84.87
2018-12-07T03:18:28.937Z,84.94
2018-12-07T03:20:57.275Z,85.35
2018-12-07T03:23:25.722Z,85.48
2018-12-07T03:25:54.148Z,85.25
2018-12-07T03:28:22.469Z,84.80
2018-12-07T03:30:50.785Z,84.91
2018-12-07T03:33:19.032Z,85.07
2018-12-07T03:35:47.271Z,84.78
2018-12-07T03:38:15.591Z,84.60
2018-12-07T03:40:43.846Z,85.27
2018-12-07T03:43:12.096Z,84.77
2018-12-07T03:45:40.363Z,84.91
2018-12-07T03:48:08.552Z,85.64
2018-12-07T03:50:36.748Z,85.27
2018-12-07T03:53:04.975Z,85.19
2018-12-07T03:55:33.409Z,85.14
2018-12-07T03:58:01.652Z,85.36
2018-12-07T04:00:29.981Z,85.42
2018-12-07T04:02:58.226Z,85.44
2018-12-07T04:05:26.438Z,85.48
2018-12-07T04:07:54.672Z,85.42
2018-12-07T04:10:22.921Z,85.53
2018-12-07T04:12:51.246Z,85.21
2018-12-07T04:15:19.608Z,85.23
2018-12-07T04:17:47.820Z,85.09
2018-12-07T04:20:16.059Z,85.15
2018-12-07T04:22:44.275Z,84.86
2018-12-07T04:25:12.540Z,85.34
2018-12-07T04:27:40.775Z,85.00
2018-12-07T04:30:23.475Z,85.31
2018-12-07T04:32:51.725Z,85.15
2018-12-07T04:35:19.980Z,85.25
2018-12-07T04:37:48.336Z,85.31
2018-12-07T04:40:16.653Z,85.44
2018-12-07T04:42:44.907Z,85.43
2018-12-07T04:45:13.223Z,85.13
2018-12-07T04:47:41.522Z,85.32
2018-12-07T04:50:09.852Z,85.50
2018-12-07T04:52:38.177Z,85.20
2018-12-07T04:55:06.527Z,85.24
2018-12-07T04:57:34.975Z,85.15
2018-12-07T05:00:03.300Z,85.20
2018-12-07T05:02:31.553Z,85.27
2018-12-07T05:04:59.875Z,84.73
2018-12-07T05:07:28.111Z,85.17
2018-12-07T05:09:56.343Z,85.06
2018-12-07T05:12:24.683Z,85.33
2018-12-07T05:14:52.931Z,84.75
2018-12-07T05:17:21.291Z,84.97
2018-12-07T05:19:49.569Z,85.01
2018-12-07T05:22:17.816Z,84.98
2018-12-07T05:24:46.054Z,85.03
2018-12-07T05:27:14.302Z,85.05
2018-12-07T05:29:42.581Z,85.07
2018-12-07T05:32:10.820Z,85.02
2018-12-07T05:34:39.132Z,85.20
2018-12-07T05:37:07.439Z,85.05
2018-12-07T05:39:58.090Z,85.47
2018-12-07T05:42:26.468Z,85.60
2018-12-07T05:44:54.707Z,85.44
2018-12-07T05:47:23.019Z,85.24
2018-12-07T05:49:51.263Z,85.44
2018-12-07T05:52:19.574Z,85.33
2018-12-07T05:54:47.803Z,85.32
2018-12-07T05:57:16.074Z,85.45
2018-12-07T05:59:44.331Z,85.45
2018-12-07T06:02:12.621Z,85.73
2018-12-07T06:04:40.850Z,85.38
2018-12-07T06:07:09.070Z,85.54
2018-12-07T06:09:37.347Z,85.67
2018-12-07T06:12:05.764Z,85.67
2018-12-07T06:14:34.120Z,85.33
2018-12-07T06:17:02.470Z,85.21
2018-12-07T06:19:30.872Z,84.72
2018-12-07T06:21:59.154Z,85.10
2018-12-07T06:24:27.409Z,84.92
2018-12-07T06:26:55.647Z,85.12
2018-12-07T06:29:23.870Z,85.06
2018-12-07T06:31:52.113Z,85.17
2018-12-07T06:34:20.423Z,85.46
2018-12-07T06:36:48.674Z,84.98
2018-12-07T06:39:16.907Z,85.11
2018-12-07T06:41:45.191Z,84.67
2018-12-07T06:44:13.502Z,84.58
2018-12-07T06:46:41.747Z,84.49
2018-12-07T06:49:13.987Z,84.52
2018-12-07T06:51:43.505Z,84.87
2018-12-07T06:54:11.908Z,84.81
2018-12-07T06:56:40.224Z,84.46
2018-12-07T06:59:08.468Z,84.30
2018-12-07T07:01:36.798Z,84.31
2018-12-07T07:04:05.183Z,84.23
2018-12-07T07:06:33.449Z,84.29
2018-12-07T07:09:01.775Z,83.88
2018-12-07T07:11:30.025Z,84.11
2018-12-07T07:13:58.262Z,83.83
2018-12-07T07:16:26.549Z,83.73
2018-12-07T07:19:17.115Z,83.71
2018-12-07T07:21:45.383Z,83.76
2018-12-07T07:24:13.694Z,83.56
2018-12-07T07:26:42.018Z,83.36
2018-12-07T07:29:10.299Z,83.98
2018-12-07T07:31:43.435Z,83.64
2018-12-07T07:34:08.895Z,83.74
2018-12-07T07:36:37.248Z,83.28
2018-12-07T07:39:06.896Z,83.47
2018-12-07T07:41:35.194Z,82.94
2018-12-07T07:44:03.620Z,82.88
2018-12-07T07:46:31.957Z,83.08
2018-12-07T07:49:00.329Z,83.30
2018-12-07T07:51:28.545Z,82.96
2018-12-07T07:53:56.777Z,83.30
2018-12-07T07:56:25.013Z,83.04
2018-12-07T07:58:53.290Z,83.41
2018-12-07T08:01:21.522Z,83.04
2018-12-07T08:03:49.744Z,83.48
2018-12-07T08:09:10.816Z,83.29
2018-12-07T08:11:39.188Z,83.65
2018-12-07T08:16:59.913Z,82.88
2018-12-07T08:19:28.160Z,82.66
2018-12-07T08:21:56.409Z,82.98
2018-12-07T08:24:24.657Z,82.75
2018-12-07T08:26:52.885Z,83.14
2018-12-07T08:32:14.164Z,82.50
2018-12-07T08:34:42.511Z,82.75
2018-12-07T08:37:10.784Z,82.42
2018-12-07T08:39:39.135Z,82.31
2018-12-07T08:42:07.497Z,82.45
2018-12-07T08:44:35.883Z,82.38
2018-12-07T08:47:04.348Z,82.45
2018-12-07T08:49:37.855Z,82.55
2018-12-07T08:52:06.402Z,82.70
2018-12-07T08:54:34.739Z,81.76
2018-12-07T08:57:19.484Z,82.27
2018-12-07T08:59:47.813Z,82.49
2018-12-07T09:02:16.056Z,82.66
2018-12-07T09:04:44.307Z,82.56
2018-12-07T09:07:12.553Z,82.42
2018-12-07T09:09:40.814Z,82.46
2018-12-07T09:12:09.042Z,82.99
2018-12-07T09:14:37.271Z,82.62
2018-12-07T09:17:05.674Z,82.34
2018-12-07T09:19:34.113Z,82.90
2018-12-07T09:22:02.462Z,83.08
2018-12-07T09:24:30.710Z,82.54
2018-12-07T09:27:14.976Z,82.48
2018-12-07T09:29:43.219Z,82.48
2018-12-07T09:32:11.486Z,83.15
2018-12-07T09:34:39.809Z,82.54
2018-12-07T09:37:08.088Z,83.01
2018-12-07T09:39:36.331Z,83.37
2018-12-07T09:42:04.669Z,83.02
2018-12-07T09:44:33.019Z,83.11
2018-12-07T09:47:01.294Z,83.03
2018-12-07T09:49:29.537Z,83.01
2018-12-07T09:51:57.821Z,83.23
2018-12-07T09:57:18.647Z,83.09
2018-12-07T10:02:40.092Z,82.92
2018-12-07T10:05:08.513Z,83.05
2018-12-07T10:07:36.785Z,83.39
2018-12-07T10:10:05.190Z,83.43
2018-12-07T10:12:33.417Z,83.68
2018-12-07T10:15:01.682Z,83.77
2018-12-07T10:17:30.051Z,83.53
2018-12-07T10:19:58.443Z,83.33
2018-12-07T10:22:26.669Z,83.38
2018-12-07T10:27:47.427Z,83.18
2018-12-07T10:30:15.702Z,83.07
2018-12-07T10:32:43.972Z,83.05
2018-12-07T10:35:12.181Z,82.80
2018-12-07T10:37:40.459Z,83.03
2018-12-07T10:40:08.871Z,82.42
2018-12-07T10:42:37.121Z,82.33
2018-12-07T10:45:06.077Z,82.19
2018-12-07T10:47:34.402Z,82.53
2018-12-07T10:50:02.664Z,82.83
2018-12-07T10:52:30.909Z,83.05
2018-12-07T10:54:59.162Z,82.51
2018-12-07T10:57:27.402Z,82.78
2018-12-07T10:59:55.691Z,82.95
2018-12-07T11:02:29.338Z,83.24
2018-12-07T11:05:02.870Z,82.82
2018-12-07T11:07:36.598Z,83.47
2018-12-07T11:10:10.447Z,82.93
2018-12-07T11:12:44.190Z,83.29
2018-12-07T11:15:17.694Z,83.33
2018-12-07T11:17:51.463Z,83.29
2018-12-07T11:20:25.032Z,83.17
2018-12-07T11:22:58.649Z,83.30
2018-12-07T11:25:32.342Z,83.44
2018-12-07T11:28:06.164Z,83.00
2018-12-07T11:31:37.370Z,83.05
2018-12-07T11:34:12.796Z,83.04
2018-12-07T11:36:41.030Z,83.13
2018-12-07T11:39:09.782Z,82.64
2018-12-07T11:41:37.996Z,82.81
2018-12-07T11:44:06.367Z,83.29
2018-12-07T11:46:34.593Z,82.83
2018-12-07T11:49:02.797Z,83.34
2018-12-07T11:51:31.866Z,83.30
2018-12-07T11:54:00.103Z,83.24
2018-12-07T11:56:47.310Z,83.07
2018-12-07T11:59:15.543Z,82.97
2018-12-07T12:01:44.890Z,83.49
2018-12-07T12:04:13.520Z,83.07
2018-12-07T12:06:41.786Z,83.08
2018-12-07T12:09:10.294Z,83.08
2018-12-07T12:11:38.577Z,83.57
2018-12-07T12:14:06.858Z,83.47
2018-12-07T12:16:35.122Z,83.19
2018-12-07T12:19:03.407Z,83.31
2018-12-07T12:21:31.670Z,83.19
2018-12-07T12:23:59.915Z,83.15
2018-12-07T12:26:28.144Z,83.26
2018-12-07T12:28:56.460Z,83.33
2018-12-07T12:31:24.826Z,83.15
2018-12-07T12:33:53.053Z,83.30
2018-12-07T13:22:11.536Z,83.20
2018-12-07T13:24:39.787Z,83.38
2018-12-07T13:27:08.073Z,83.66
2018-12-07T13:29:36.580Z,83.37
2018-12-07T13:32:05.341Z,83.85
2018-12-07T13:34:33.633Z,83.11
2018-12-07T13:37:01.894Z,83.19
2018-12-07T13:39:30.418Z,83.18
2018-12-07T13:41:58.940Z,82.66
2018-12-07T13:44:27.521Z,82.67
2018-12-07T13:49:51.370Z,82.05
2018-12-07T13:52:19.627Z,82.08
2018-12-07T13:54:47.942Z,81.53
2018-12-07T14:00:09.660Z,81.54
2018-12-07T14:02:38.079Z,81.29
2018-12-07T14:05:06.703Z,81.46
2018-12-07T14:07:35.077Z,80.92
2018-12-07T14:10:03.693Z,81.11
2018-12-07T14:15:25.537Z,81.46
2018-12-07T14:17:54.186Z,81.50
2018-12-07T14:20:22.593Z,81.18
2018-12-07T14:22:51.229Z,81.54
2018-12-07T14:25:19.767Z,81.13
2018-12-07T14:27:48.137Z,81.80
2018-12-07T14:30:16.457Z,81.36
2018-12-07T14:32:44.952Z,81.59
2018-12-07T14:35:13.633Z,81.78
2018-12-07T14:37:42.020Z,82.01
2018-12-07T14:40:11.950Z,81.37
2018-12-07T14:43:43.734Z,81.62
2018-12-07T14:46:12.039Z,81.68
2018-12-07T14:48:40.299Z,82.08
2018-12-07T14:51:08.918Z,81.42
2018-12-07T14:53:37.368Z,81.71
2018-12-07T14:56:05.860Z,81.81
2018-12-07T14:58:34.562Z,81.88
2018-12-07T15:01:03.163Z,81.69
2018-12-07T15:03:31.544Z,81.79
2018-12-07T15:05:59.964Z,80.82
2018-12-07T15:08:28.429Z,80.76
2018-12-07T15:10:57.018Z,81.09
2018-12-07T15:13:25.554Z,81.17
2018-12-07T15:15:53.874Z,81.01
2018-12-07T15:18:22.475Z,80.67
2018-12-07T15:20:54.326Z,80.25
2018-12-07T15:23:22.666Z,80.21
2018-12-07T15:26:07.809Z,80.11
2018-12-07T15:28:36.611Z,80.05
2018-12-07T15:31:05.204Z,79.55
2018-12-07T15:33:33.807Z,79.98
2018-12-07T15:36:02.275Z,80.33
2018-12-07T15:38:30.832Z,79.61
2018-12-07T15:41:00.687Z,80.06
2018-12-07T15:43:29.201Z,80.37
2018-12-07T15:45:57.637Z,80.16
2018-12-07T15:48:26.015Z,80.34
2018-12-07T15:50:54.496Z,80.45
2018-12-07T15:53:23.010Z,79.60
2018-12-07T15:55:51.492Z,80.11
2018-12-07T15:58:20.069Z,80.22
2018-12-07T16:00:48.545Z,79.77
2018-12-07T16:06:09.802Z,80.06
2018-12-07T16:08:38.320Z,79.98
2018-12-07T16:11:06.932Z,80.87
2018-12-07T16:13:35.384Z,80.99
2018-12-07T16:16:03.761Z,80.92
2018-12-07T16:18:32.702Z,81.15
2018-12-07T16:21:01.340Z,81.39
2018-12-07T16:23:29.857Z,81.34
2018-12-07T16:25:58.821Z,81.15
2018-12-07T16:28:27.711Z,81.70
2018-12-07T16:30:56.536Z,81.78
2018-12-07T16:33:25.073Z,81.18
2018-12-07T16:35:53.463Z,80.82
2018-12-07T16:38:22.009Z,81.11
2018-12-07T16:40:50.491Z,80.89
2018-12-07T16:43:19.053Z,81.14
2018-12-07T16:45:47.607Z,81.38
2018-12-07T16:48:16.310Z,80.85
2018-12-07T16:50:44.735Z,81.21
2018-12-07T16:53:13.359Z,80.76
2018-12-07T16:55:41.853Z,80.86
2018-12-07T16:58:10.697Z,81.26
2018-12-07T17:00:39.119Z,80.60
2018-12-07T17:03:07.414Z,80.92
2018-12-07T17:05:35.708Z,80.45
2018-12-07T17:08:04.130Z,80.56
2018-12-07T17:10:32.606Z,80.44
2018-12-07T17:13:01.025Z,80.76
2018-12-07T17:15:29.793Z,80.27
2018-12-07T17:17:58.276Z,80.11
2018-12-07T17:20:26.708Z,80.03
2018-12-07T17:22:55.272Z,79.96
2018-12-07T17:25:23.752Z,80.25
2018-12-07T17:27:52.311Z,79.78
2018-12-07T17:30:21.113Z,79.23
2018-12-07T17:32:49.511Z,79.78
2018-12-07T17:35:17.857Z,79.50
2018-12-07T17:37:46.274Z,79.92
2018-12-07T17:40:14.568Z,80.29
2018-12-07T17:42:42.882Z,80.63
2018-12-07T17:45:11.302Z,80.07
2018-12-07T17:47:40.010Z,80.15
2018-12-07T17:50:09.262Z,80.37
2018-12-07T17:52:38.016Z,80.38
2018-12-07T17:55:06.513Z,79.79
2018-12-07T17:57:34.875Z,79.89
2018-12-07T18:00:03.480Z,79.60
2018-12-07T18:02:32.112Z,79.05
2018-12-07T18:05:00.579Z,78.93
2018-12-07T18:07:29.126Z,79.38
2018-12-07T18:09:57.876Z,79.14
2018-12-07T18:12:26.347Z,79.48
2018-12-07T18:14:54.989Z,79.78
2018-12-07T18:17:23.453Z,79.88
2018-12-07T18:19:53.382Z,79.51
2018-12-07T18:22:22.000Z,79.03
2018-12-07T18:24:50.700Z,78.70
2018-12-07T18:27:19.257Z,78.74
2018-12-07T18:29:47.723Z,79.00
2018-12-07T18:32:15.944Z,79.08
2018-12-07T18:34:44.186Z,78.43
2018-12-07T18:37:12.604Z,79.06
2018-12-07T18:39:41.190Z,79.34
2018-12-07T18:42:09.767Z,78.92
2018-12-07T18:44:38.291Z,79.07
2018-12-07T18:47:06.955Z,78.54
2018-12-07T18:49:35.682Z,78.45
2018-12-07T18:52:04.154Z,78.45
2018-12-07T18:54:32.691Z,78.02
2018-12-07T18:57:01.228Z,78.81
2018-12-07T18:59:29.587Z,78.14
2018-12-07T19:01:58.312Z,78.84
2018-12-07T19:04:26.802Z,78.47
2018-12-07T19:06:55.536Z,78.21
2018-12-07T19:09:23.971Z,78.45
2018-12-07T19:11:52.805Z,78.28
2018-12-07T19:14:21.391Z,78.58
2018-12-07T19:16:49.937Z,78.35
2018-12-07T19:19:18.290Z,78.44
2018-12-07T19:21:46.578Z,78.50
2018-12-07T19:24:15.027Z,78.63
2018-12-07T19:26:43.571Z,78.12
2018-12-07T19:29:12.010Z,78.84
2018-12-07T19:31:40.566Z,78.70
2018-12-07T19:34:09.115Z,78.39
2018-12-07T19:36:37.695Z,78.90
2018-12-07T19:39:09.144Z,79.54
2018-12-07T19:41:37.796Z,79.91
2018-12-07T19:44:06.769Z,79.72
2018-12-07T19:46:35.239Z,79.71
2018-12-07T19:49:03.586Z,80.44
2018-12-07T19:51:31.915Z,80.08
2018-12-07T19:54:00.296Z,80.44
2018-12-07T19:56:28.733Z,80.95
2018-12-07T19:58:57.059Z,80.52
2018-12-07T20:01:25.431Z,80.58
2018-12-07T20:03:54.109Z,80.58
2018-12-07T20:06:22.751Z,80.85
2018-12-07T20:08:51.152Z,80.66
2018-12-07T20:11:19.877Z,81.22
2018-12-07T20:13:49.124Z,80.23
2018-12-07T20:16:17.609Z,80.67
2018-12-07T20:18:46.275Z,79.86
2018-12-07T20:21:15.070Z,80.60
2018-12-07T20:23:43.640Z,78.86
2018-12-07T20:26:12.278Z,78.14
2018-12-07T20:28:40.730Z,76.95
2018-12-07T20:31:09.145Z,76.03
2018-12-07T20:33:37.711Z,77.38
2018-12-07T20:36:06.449Z,77.09
2018-12-07T20:38:35.052Z,77.50
2018-12-07T20:41:03.496Z,77.71
2018-12-07T20:43:31.865Z,76.40
2018-12-07T20:46:01.944Z,77.40
2018-12-07T20:48:30.570Z,77.86
2018-12-07T20:50:59.285Z,76.74
2018-12-07T20:53:28.167Z,77.13
2018-12-07T20:55:56.575Z,77.18
2018-12-07T20:58:25.167Z,77.17
2018-12-07T21:00:59.272Z,76.69
2018-12-07T21:03:51.380Z,75.78
2018-12-07T21:06:36.054Z,75.78
2018-12-07T21:09:24.183Z,75.55
2018-12-07T21:12:02.409Z,75.68
2018-12-07T21:14:50.158Z,76.16
2018-12-07T21:17:26.594Z,74.90
2018-12-07T21:20:01.381Z,74.11
2018-12-07T21:25:23.147Z,74.59
2018-12-07T21:30:55.459Z,72.88
2018-12-07T21:33:31.388Z,73.53
2018-12-07T21:36:33.603Z,72.85
2018-12-07T21:39:02.100Z,73.99
2018-12-07T21:41:30.792Z,73.30
2018-12-07T21:43:59.269Z,72.91
2018-12-07T21:46:28.112Z,73.21
2018-12-07T21:48:56.622Z,73.26
2018-12-07T21:51:30.955Z,73.49
2018-12-07T21:53:59.623Z,73.60
2018-12-07T21:56:28.211Z,73.22
2018-12-07T21:58:56.913Z,73.67
2018-12-07T22:01:25.514Z,71.80
2018-12-07T22:03:54.104Z,72.00
2018-12-07T22:06:22.756Z,72.60
2018-12-07T22:08:51.252Z,73.09
2018-12-07T22:11:19.729Z,72.71
2018-12-07T22:13:48.416Z,72.29
2018-12-07T22:19:09.859Z,72.28
2018-12-07T22:21:38.371Z,73.04
2018-12-07T22:24:06.912Z,72.70
2018-12-07T22:26:35.612Z,73.42
2018-12-07T22:29:04.107Z,74.04
2018-12-07T22:31:42.954Z,73.42
2018-12-07T22:34:11.710Z,73.46
2018-12-07T22:36:40.264Z,74.34
2018-12-07T22:39:09.028Z,74.01
2018-12-07T22:41:37.523Z,74.45
2018-12-07T22:44:05.863Z,73.42
2018-12-07T22:46:34.245Z,73.08
2018-12-07T22:49:02.792Z,72.62
2018-12-07T22:51:31.128Z,72.34
2018-12-07T22:53:59.443Z,72.32
2018-12-07T22:56:27.709Z,72.81
2018-12-07T22:58:55.988Z,71.96
2018-12-07T23:01:24.468Z,72.31
2018-12-07T23:03:52.764Z,72.13
2018-12-07T23:06:21.017Z,71.64
2018-12-07T23:08:49.386Z,71.93
2018-12-07T23:11:17.669Z,72.22
2018-12-07T23:13:46.016Z,72.15
2018-12-07T23:16:14.391Z,72.38
2018-12-07T23:18:42.717Z,71.56
2018-12-07T23:21:11.120Z,71.34
2018-12-07T23:23:40.248Z,71.95
2018-12-07T23:26:08.574Z,72.08
2018-12-07T23:28:36.971Z,71.93
2018-12-07T23:31:05.248Z,72.49
2018-12-07T23:33:33.563Z,72.46
2018-12-07T23:36:01.882Z,72.93
2018-12-07T23:38:30.346Z,72.88
2018-12-07T23:40:58.615Z,72.65
2018-12-07T23:43:26.849Z,73.28
2018-12-07T23:45:55.265Z,73.50
2018-12-07T23:48:23.748Z,73.20
2018-12-07T23:50:51.995Z,73.10
2018-12-07T23:53:20.222Z,72.80
2018-12-07T23:55:48.493Z,72.65
2018-12-07T23:58:16.859Z,72.89
